sensor_id;sensor_type;location;lat;lon;timestamp;temperature;humidity
28959;DHT22;16066;0.000;0.000;2023-03-23T00:01:22;19.80;44.50
28959;DHT22;16066;0.000;0.000;2023-03-23T00:03:49;19.80;44.60
28959;DHT22;16066;0.000;0.000;2023-03-23T00:06:16;19.70;44.60
28959;DHT22;16066;0.000;0.000;2023-03-23T00:08:47;19.70;44.60
28959;DHT22;16066;0.000;0.000;2023-03-23T00:11:20;19.70;44.60
28959;DHT22;16066;0.000;0.000;2023-03-23T00:13:47;19.70;44.70
28959;DHT22;16066;0.000;0.000;2023-03-23T00:16:16;19.60;44.70
28959;DHT22;16066;0.000;0.000;2023-03-23T00:18:49;19.60;44.70
28959;DHT22;16066;0.000;0.000;2023-03-23T00:21:18;19.60;44.70
28959;DHT22;16066;0.000;0.000;2023-03-23T00:23:44;19.60;44.80
28959;DHT22;16066;0.000;0.000;2023-03-23T00:26:10;19.60;44.70
28959;DHT22;16066;0.000;0.000;2023-03-23T00:28:36;19.60;44.80
28959;DHT22;16066;0.000;0.000;2023-03-23T00:31:05;19.60;44.90
28959;DHT22;16066;0.000;0.000;2023-03-23T00:33:33;19.50;44.70
28959;DHT22;16066;0.000;0.000;2023-03-23T00:36:04;19.50;44.80
28959;DHT22;16066;0.000;0.000;2023-03-23T00:38:30;19.50;44.80
28959;DHT22;16066;0.000;0.000;2023-03-23T00:40:55;19.50;44.80
28959;DHT22;16066;0.000;0.000;2023-03-23T00:43:23;19.50;44.90
28959;DHT22;16066;0.000;0.000;2023-03-23T00:45:51;19.50;44.90
28959;DHT22;16066;0.000;0.000;2023-03-23T00:48:22;19.50;44.90
28959;DHT22;16066;0.000;0.000;2023-03-23T00:50:49;19.40;44.90
28959;DHT22;16066;0.000;0.000;2023-03-23T00:53:15;19.40;44.90
28959;DHT22;16066;0.000;0.000;2023-03-23T00:55:42;19.40;44.90
28959;DHT22;16066;0.000;0.000;2023-03-23T00:58:09;19.40;44.80
28959;DHT22;16066;0.000;0.000;2023-03-23T01:00:34;19.40;45.00
28959;DHT22;16066;0.000;0.000;2023-03-23T01:03:00;19.40;45.00
28959;DHT22;16066;0.000;0.000;2023-03-23T01:05:26;19.40;45.00
28959;DHT22;16066;0.000;0.000;2023-03-23T01:08:00;19.40;45.00
28959;DHT22;16066;0.000;0.000;2023-03-23T01:10:27;19.40;45.00
28959;DHT22;16066;0.000;0.000;2023-03-23T01:12:54;19.40;45.00
28959;DHT22;16066;0.000;0.000;2023-03-23T01:15:20;19.30;44.90
28959;DHT22;16066;0.000;0.000;2023-03-23T01:17:46;19.40;45.10
28959;DHT22;16066;0.000;0.000;2023-03-23T01:20:14;19.40;45.00
28959;DHT22;16066;0.000;0.000;2023-03-23T01:22:41;19.30;45.00
28959;DHT22;16066;0.000;0.000;2023-03-23T01:25:08;19.30;45.00
28959;DHT22;16066;0.000;0.000;2023-03-23T01:27:34;19.30;45.00
28959;DHT22;16066;0.000;0.000;2023-03-23T01:29:59;19.30;45.10
28959;DHT22;16066;0.000;0.000;2023-03-23T01:32:25;19.30;45.10
28959;DHT22;16066;0.000;0.000;2023-03-23T01:34:51;19.30;45.10
28959;DHT22;16066;0.000;0.000;2023-03-23T01:37:16;19.30;45.20
28959;DHT22;16066;0.000;0.000;2023-03-23T01:39:43;19.30;45.20
28959;DHT22;16066;0.000;0.000;2023-03-23T01:42:09;19.30;45.20
28959;DHT22;16066;0.000;0.000;2023-03-23T01:47:00;19.20;45.20
28959;DHT22;16066;0.000;0.000;2023-03-23T01:49:42;19.20;45.20
28959;DHT22;16066;0.000;0.000;2023-03-23T01:52:13;19.20;45.20
28959;DHT22;16066;0.000;0.000;2023-03-23T01:54:42;19.20;45.30
28959;DHT22;16066;0.000;0.000;2023-03-23T01:57:13;19.20;45.20
28959;DHT22;16066;0.000;0.000;2023-03-23T01:59:42;19.20;45.20
28959;DHT22;16066;0.000;0.000;2023-03-23T02:02:10;19.20;45.30
28959;DHT22;16066;0.000;0.000;2023-03-23T02:04:36;19.20;45.40
28959;DHT22;16066;0.000;0.000;2023-03-23T02:07:03;19.20;45.30
28959;DHT22;16066;0.000;0.000;2023-03-23T02:09:30;19.20;45.40
28959;DHT22;16066;0.000;0.000;2023-03-23T02:11:56;19.20;45.40
28959;DHT22;16066;0.000;0.000;2023-03-23T02:14:24;19.20;45.40
28959;DHT22;16066;0.000;0.000;2023-03-23T02:22:14;19.10;45.30
28959;DHT22;16066;0.000;0.000;2023-03-23T02:25:11;19.10;45.40
28959;DHT22;16066;0.000;0.000;2023-03-23T02:36:02;19.10;45.40
28959;DHT22;16066;0.000;0.000;2023-03-23T02:38:38;19.10;45.50
28959;DHT22;16066;0.000;0.000;2023-03-23T02:41:04;19.10;45.50
28959;DHT22;16066;0.000;0.000;2023-03-23T02:43:36;19.10;45.50
28959;DHT22;16066;0.000;0.000;2023-03-23T02:46:04;19.10;45.50
28959;DHT22;16066;0.000;0.000;2023-03-23T02:48:32;19.10;45.50
28959;DHT22;16066;0.000;0.000;2023-03-23T02:51:00;19.10;45.40
28959;DHT22;16066;0.000;0.000;2023-03-23T02:53:28;19.10;45.50
28959;DHT22;16066;0.000;0.000;2023-03-23T02:55:55;19.10;45.40
28959;DHT22;16066;0.000;0.000;2023-03-23T02:58:22;19.10;45.50
28959;DHT22;16066;0.000;0.000;2023-03-23T03:00:51;19.00;45.50
28959;DHT22;16066;0.000;0.000;2023-03-23T03:03:20;19.00;45.40
28959;DHT22;16066;0.000;0.000;2023-03-23T03:08:46;19.00;45.40
28959;DHT22;16066;0.000;0.000;2023-03-23T03:11:15;19.00;45.50
28959;DHT22;16066;0.000;0.000;2023-03-23T03:13:46;19.00;46.10
28959;DHT22;16066;0.000;0.000;2023-03-23T03:18:56;19.00;45.50
28959;DHT22;16066;0.000;0.000;2023-03-23T03:21:27;19.00;45.50
28959;DHT22;16066;0.000;0.000;2023-03-23T03:23:56;19.00;45.60
28959;DHT22;16066;0.000;0.000;2023-03-23T03:26:26;19.00;45.60
28959;DHT22;16066;0.000;0.000;2023-03-23T03:28:53;19.00;45.50
28959;DHT22;16066;0.000;0.000;2023-03-23T03:31:22;19.00;45.60
28959;DHT22;16066;0.000;0.000;2023-03-23T03:33:48;19.00;45.60
28959;DHT22;16066;0.000;0.000;2023-03-23T03:36:17;19.00;45.60
28959;DHT22;16066;0.000;0.000;2023-03-23T03:38:46;19.00;45.60
28959;DHT22;16066;0.000;0.000;2023-03-23T03:41:12;19.00;45.60
28959;DHT22;16066;0.000;0.000;2023-03-23T03:43:37;19.00;45.70
28959;DHT22;16066;0.000;0.000;2023-03-23T03:46:03;19.00;45.70
28959;DHT22;16066;0.000;0.000;2023-03-23T03:48:29;19.00;45.70
28959;DHT22;16066;0.000;0.000;2023-03-23T03:50:54;19.00;45.70
28959;DHT22;16066;0.000;0.000;2023-03-23T03:53:22;19.00;45.70
28959;DHT22;16066;0.000;0.000;2023-03-23T03:55:48;18.90;45.60
28959;DHT22;16066;0.000;0.000;2023-03-23T03:58:15;18.90;45.50
28959;DHT22;16066;0.000;0.000;2023-03-23T04:00:41;18.90;45.60
28959;DHT22;16066;0.000;0.000;2023-03-23T04:03:07;19.00;45.70
28959;DHT22;16066;0.000;0.000;2023-03-23T04:05:33;18.90;45.60
28959;DHT22;16066;0.000;0.000;2023-03-23T04:07:58;18.90;45.60
28959;DHT22;16066;0.000;0.000;2023-03-23T04:10:28;18.90;45.60
28959;DHT22;16066;0.000;0.000;2023-03-23T04:12:54;18.90;45.60
28959;DHT22;16066;0.000;0.000;2023-03-23T04:15:21;18.90;45.60
28959;DHT22;16066;0.000;0.000;2023-03-23T04:17:46;18.90;45.60
28959;DHT22;16066;0.000;0.000;2023-03-23T04:20:12;18.90;45.50
28959;DHT22;16066;0.000;0.000;2023-03-23T04:22:42;18.90;45.60
28959;DHT22;16066;0.000;0.000;2023-03-23T04:25:10;18.90;45.60
28959;DHT22;16066;0.000;0.000;2023-03-23T04:27:37;18.90;46.20
28959;DHT22;16066;0.000;0.000;2023-03-23T04:30:03;18.90;45.60
28959;DHT22;16066;0.000;0.000;2023-03-23T04:32:30;18.90;45.60
28959;DHT22;16066;0.000;0.000;2023-03-23T04:34:57;18.90;46.30
28959;DHT22;16066;0.000;0.000;2023-03-23T04:37:24;18.90;45.70
28959;DHT22;16066;0.000;0.000;2023-03-23T04:39:57;18.90;45.60
28959;DHT22;16066;0.000;0.000;2023-03-23T04:42:30;18.90;45.60
28959;DHT22;16066;0.000;0.000;2023-03-23T04:44:57;18.90;45.60
28959;DHT22;16066;0.000;0.000;2023-03-23T04:47:23;18.90;45.60
28959;DHT22;16066;0.000;0.000;2023-03-23T04:49:49;18.90;45.70
28959;DHT22;16066;0.000;0.000;2023-03-23T04:52:17;18.90;45.60
28959;DHT22;16066;0.000;0.000;2023-03-23T04:54:42;18.90;45.60
28959;DHT22;16066;0.000;0.000;2023-03-23T04:57:08;18.90;45.70
28959;DHT22;16066;0.000;0.000;2023-03-23T04:59:34;18.90;45.60
28959;DHT22;16066;0.000;0.000;2023-03-23T05:01:59;18.90;45.60
28959;DHT22;16066;0.000;0.000;2023-03-23T05:04:25;18.90;45.70
28959;DHT22;16066;0.000;0.000;2023-03-23T05:06:51;18.90;45.70
28959;DHT22;16066;0.000;0.000;2023-03-23T05:09:17;18.90;45.70
28959;DHT22;16066;0.000;0.000;2023-03-23T05:11:42;18.90;45.70
28959;DHT22;16066;0.000;0.000;2023-03-23T05:14:08;18.90;45.70
28959;DHT22;16066;0.000;0.000;2023-03-23T05:16:34;18.90;45.70
28959;DHT22;16066;0.000;0.000;2023-03-23T05:19:02;18.90;45.70
28959;DHT22;16066;0.000;0.000;2023-03-23T05:21:27;18.80;45.60
28959;DHT22;16066;0.000;0.000;2023-03-23T05:23:53;18.90;45.70
28959;DHT22;16066;0.000;0.000;2023-03-23T05:26:21;18.80;45.60
28959;DHT22;16066;0.000;0.000;2023-03-23T05:28:46;18.80;45.60
28959;DHT22;16066;0.000;0.000;2023-03-23T05:31:13;18.80;45.60
28959;DHT22;16066;0.000;0.000;2023-03-23T05:33:39;18.80;45.60
28959;DHT22;16066;0.000;0.000;2023-03-23T05:36:05;18.90;45.70
28959;DHT22;16066;0.000;0.000;2023-03-23T05:38:32;18.80;45.60
28959;DHT22;16066;0.000;0.000;2023-03-23T05:40:59;18.80;45.60
28959;DHT22;16066;0.000;0.000;2023-03-23T05:43:27;18.80;45.60
28959;DHT22;16066;0.000;0.000;2023-03-23T05:45:52;18.80;45.60
28959;DHT22;16066;0.000;0.000;2023-03-23T05:48:18;18.80;45.60
28959;DHT22;16066;0.000;0.000;2023-03-23T05:50:43;18.80;45.60
28959;DHT22;16066;0.000;0.000;2023-03-23T05:53:09;18.80;45.50
28959;DHT22;16066;0.000;0.000;2023-03-23T05:55:35;18.80;45.60
28959;DHT22;16066;0.000;0.000;2023-03-23T05:58:01;18.80;45.60
28959;DHT22;16066;0.000;0.000;2023-03-23T06:00:26;18.80;45.60
28959;DHT22;16066;0.000;0.000;2023-03-23T06:02:56;18.80;45.60
28959;DHT22;16066;0.000;0.000;2023-03-23T06:05:22;18.80;45.60
28959;DHT22;16066;0.000;0.000;2023-03-23T06:07:49;18.80;45.60
28959;DHT22;16066;0.000;0.000;2023-03-23T06:10:14;18.80;45.60
28959;DHT22;16066;0.000;0.000;2023-03-23T06:12:40;18.80;45.60
28959;DHT22;16066;0.000;0.000;2023-03-23T06:15:07;18.80;45.60
28959;DHT22;16066;0.000;0.000;2023-03-23T06:17:34;18.80;45.60
28959;DHT22;16066;0.000;0.000;2023-03-23T06:20:02;18.80;45.60
28959;DHT22;16066;0.000;0.000;2023-03-23T06:22:29;18.80;45.60
28959;DHT22;16066;0.000;0.000;2023-03-23T06:24:55;18.80;45.60
28959;DHT22;16066;0.000;0.000;2023-03-23T06:27:22;18.80;45.60
28959;DHT22;16066;0.000;0.000;2023-03-23T06:29:48;18.80;45.60
28959;DHT22;16066;0.000;0.000;2023-03-23T06:32:14;18.80;45.60
28959;DHT22;16066;0.000;0.000;2023-03-23T06:34:40;18.80;45.60
28959;DHT22;16066;0.000;0.000;2023-03-23T06:37:09;18.80;45.60
28959;DHT22;16066;0.000;0.000;2023-03-23T06:39:34;18.80;45.60
28959;DHT22;16066;0.000;0.000;2023-03-23T06:42:01;18.80;45.60
28959;DHT22;16066;0.000;0.000;2023-03-23T06:44:26;18.80;45.60
28959;DHT22;16066;0.000;0.000;2023-03-23T06:46:52;18.80;45.60
28959;DHT22;16066;0.000;0.000;2023-03-23T06:49:17;18.80;45.80
28959;DHT22;16066;0.000;0.000;2023-03-23T06:51:43;18.80;45.70
28959;DHT22;16066;0.000;0.000;2023-03-23T06:54:09;18.80;45.70
28959;DHT22;16066;0.000;0.000;2023-03-23T06:56:35;18.90;46.10
28959;DHT22;16066;0.000;0.000;2023-03-23T06:59:01;18.90;46.00
28959;DHT22;16066;0.000;0.000;2023-03-23T07:01:26;18.90;46.00
28959;DHT22;16066;0.000;0.000;2023-03-23T07:03:53;18.90;45.90
28959;DHT22;16066;0.000;0.000;2023-03-23T07:06:21;18.90;45.90
28959;DHT22;16066;0.000;0.000;2023-03-23T07:08:47;18.90;46.20
28959;DHT22;16066;0.000;0.000;2023-03-23T07:11:12;18.90;46.40
28959;DHT22;16066;0.000;0.000;2023-03-23T07:13:38;18.90;46.30
28959;DHT22;16066;0.000;0.000;2023-03-23T07:16:07;18.90;46.10
28959;DHT22;16066;0.000;0.000;2023-03-23T07:18:33;18.90;46.00
28959;DHT22;16066;0.000;0.000;2023-03-23T07:20:59;18.90;45.90
28959;DHT22;16066;0.000;0.000;2023-03-23T07:23:25;18.90;45.90
28959;DHT22;16066;0.000;0.000;2023-03-23T07:25:51;18.90;45.90
28959;DHT22;16066;0.000;0.000;2023-03-23T07:28:17;19.00;46.00
28959;DHT22;16066;0.000;0.000;2023-03-23T07:30:44;18.90;45.80
28959;DHT22;16066;0.000;0.000;2023-03-23T07:33:10;19.00;45.80
28959;DHT22;16066;0.000;0.000;2023-03-23T07:35:36;19.00;45.80
28959;DHT22;16066;0.000;0.000;2023-03-23T07:38:02;19.00;45.80
28959;DHT22;16066;0.000;0.000;2023-03-23T07:40:29;19.00;45.70
28959;DHT22;16066;0.000;0.000;2023-03-23T07:42:58;19.00;45.70
28959;DHT22;16066;0.000;0.000;2023-03-23T07:45:24;19.00;45.70
28959;DHT22;16066;0.000;0.000;2023-03-23T07:47:50;19.00;45.70
28959;DHT22;16066;0.000;0.000;2023-03-23T07:50:16;19.00;45.60
28959;DHT22;16066;0.000;0.000;2023-03-23T07:52:43;19.00;45.60
28959;DHT22;16066;0.000;0.000;2023-03-23T07:55:11;19.10;45.70
28959;DHT22;16066;0.000;0.000;2023-03-23T07:57:45;19.10;45.80
28959;DHT22;16066;0.000;0.000;2023-03-23T08:00:13;19.10;46.00
28959;DHT22;16066;0.000;0.000;2023-03-23T08:02:45;19.10;46.10
28959;DHT22;16066;0.000;0.000;2023-03-23T08:05:11;19.20;46.20
28959;DHT22;16066;0.000;0.000;2023-03-23T08:07:38;19.20;46.10
28959;DHT22;16066;0.000;0.000;2023-03-23T08:10:06;19.20;46.20
28959;DHT22;16066;0.000;0.000;2023-03-23T08:12:35;19.20;46.10
28959;DHT22;16066;0.000;0.000;2023-03-23T08:15:01;19.30;46.20
28959;DHT22;16066;0.000;0.000;2023-03-23T08:17:26;19.30;46.10
28959;DHT22;16066;0.000;0.000;2023-03-23T08:19:52;19.30;46.10
28959;DHT22;16066;0.000;0.000;2023-03-23T08:22:18;19.40;46.10
28959;DHT22;16066;0.000;0.000;2023-03-23T08:24:44;19.30;45.90
28959;DHT22;16066;0.000;0.000;2023-03-23T08:27:09;19.30;45.90
28959;DHT22;16066;0.000;0.000;2023-03-23T08:29:35;19.40;45.90
28959;DHT22;16066;0.000;0.000;2023-03-23T08:32:00;19.40;45.80
28959;DHT22;16066;0.000;0.000;2023-03-23T08:34:28;19.40;45.80
28959;DHT22;16066;0.000;0.000;2023-03-23T08:36:54;19.40;45.70
28959;DHT22;16066;0.000;0.000;2023-03-23T08:39:20;19.50;45.60
28959;DHT22;16066;0.000;0.000;2023-03-23T08:41:48;19.40;45.50
28959;DHT22;16066;0.000;0.000;2023-03-23T08:44:13;19.40;45.40
28959;DHT22;16066;0.000;0.000;2023-03-23T08:46:39;19.40;45.40
28959;DHT22;16066;0.000;0.000;2023-03-23T08:49:05;19.40;45.30
28959;DHT22;16066;0.000;0.000;2023-03-23T08:51:31;19.40;45.20
28959;DHT22;16066;0.000;0.000;2023-03-23T08:53:57;19.40;45.20
28959;DHT22;16066;0.000;0.000;2023-03-23T08:56:24;19.40;45.20
28959;DHT22;16066;0.000;0.000;2023-03-23T08:58:50;19.40;45.20
28959;DHT22;16066;0.000;0.000;2023-03-23T09:01:15;19.40;45.20
28959;DHT22;16066;0.000;0.000;2023-03-23T09:03:41;19.40;45.10
28959;DHT22;16066;0.000;0.000;2023-03-23T09:06:08;19.40;45.20
28959;DHT22;16066;0.000;0.000;2023-03-23T09:08:34;19.40;45.10
28959;DHT22;16066;0.000;0.000;2023-03-23T09:11:06;19.40;45.10
28959;DHT22;16066;0.000;0.000;2023-03-23T09:13:33;19.40;45.10
28959;DHT22;16066;0.000;0.000;2023-03-23T09:15:58;19.40;45.10
28959;DHT22;16066;0.000;0.000;2023-03-23T09:18:24;19.40;45.10
28959;DHT22;16066;0.000;0.000;2023-03-23T09:20:50;19.40;45.10
28959;DHT22;16066;0.000;0.000;2023-03-23T09:23:16;19.40;45.10
28959;DHT22;16066;0.000;0.000;2023-03-23T09:25:42;19.40;45.10
28959;DHT22;16066;0.000;0.000;2023-03-23T09:28:09;19.40;45.30
28959;DHT22;16066;0.000;0.000;2023-03-23T09:30:36;19.40;45.40
28959;DHT22;16066;0.000;0.000;2023-03-23T09:33:03;19.40;45.50
28959;DHT22;16066;0.000;0.000;2023-03-23T09:35:31;19.40;45.40
28959;DHT22;16066;0.000;0.000;2023-03-23T09:37:59;19.50;45.60
28959;DHT22;16066;0.000;0.000;2023-03-23T09:40:43;19.50;45.60
28959;DHT22;16066;0.000;0.000;2023-03-23T09:43:22;19.50;45.50
28959;DHT22;16066;0.000;0.000;2023-03-23T09:46:38;19.50;45.50
28959;DHT22;16066;0.000;0.000;2023-03-23T09:49:15;19.50;45.60
28959;DHT22;16066;0.000;0.000;2023-03-23T09:51:47;19.50;45.40
28959;DHT22;16066;0.000;0.000;2023-03-23T09:54:24;19.50;45.30
28959;DHT22;16066;0.000;0.000;2023-03-23T09:56:52;19.50;45.20
28959;DHT22;16066;0.000;0.000;2023-03-23T09:59:42;19.50;45.20
28959;DHT22;16066;0.000;0.000;2023-03-23T10:02:16;19.50;45.20
28959;DHT22;16066;0.000;0.000;2023-03-23T10:04:51;19.50;45.30
28959;DHT22;16066;0.000;0.000;2023-03-23T10:07:27;19.60;45.50
28959;DHT22;16066;0.000;0.000;2023-03-23T10:09:59;19.50;45.30
28959;DHT22;16066;0.000;0.000;2023-03-23T10:12:49;19.60;45.40
28959;DHT22;16066;0.000;0.000;2023-03-23T10:15:19;19.60;45.30
28959;DHT22;16066;0.000;0.000;2023-03-23T10:20:50;19.60;45.20
28959;DHT22;16066;0.000;0.000;2023-03-23T10:26:10;19.60;45.20
28959;DHT22;16066;0.000;0.000;2023-03-23T10:28:41;19.60;45.30
28959;DHT22;16066;0.000;0.000;2023-03-23T10:31:12;19.60;45.40
28959;DHT22;16066;0.000;0.000;2023-03-23T10:33:43;19.60;45.30
28959;DHT22;16066;0.000;0.000;2023-03-23T10:36:33;19.70;45.30
28959;DHT22;16066;0.000;0.000;2023-03-23T10:39:15;19.60;45.20
28959;DHT22;16066;0.000;0.000;2023-03-23T10:41:42;19.70;45.30
28959;DHT22;16066;0.000;0.000;2023-03-23T10:44:18;19.70;45.30
28959;DHT22;16066;0.000;0.000;2023-03-23T10:47:00;19.70;45.20
28959;DHT22;16066;0.000;0.000;2023-03-23T10:49:30;19.60;44.90
28959;DHT22;16066;0.000;0.000;2023-03-23T10:52:07;19.60;45.00
28959;DHT22;16066;0.000;0.000;2023-03-23T10:54:39;19.60;45.10
28959;DHT22;16066;0.000;0.000;2023-03-23T10:57:20;19.60;45.30
28959;DHT22;16066;0.000;0.000;2023-03-23T10:59:46;19.50;45.60
28959;DHT22;16066;0.000;0.000;2023-03-23T11:02:17;19.50;45.60
28959;DHT22;16066;0.000;0.000;2023-03-23T11:04:56;19.50;45.70
28959;DHT22;16066;0.000;0.000;2023-03-23T11:07:28;19.50;45.80
28959;DHT22;16066;0.000;0.000;2023-03-23T11:09:57;19.50;45.80
28959;DHT22;16066;0.000;0.000;2023-03-23T11:12:24;19.50;45.90
28959;DHT22;16066;0.000;0.000;2023-03-23T11:14:50;19.50;45.90
28959;DHT22;16066;0.000;0.000;2023-03-23T11:17:25;19.50;45.90
28959;DHT22;16066;0.000;0.000;2023-03-23T11:19:52;19.50;45.90
28959;DHT22;16066;0.000;0.000;2023-03-23T11:22:26;19.50;45.90
28959;DHT22;16066;0.000;0.000;2023-03-23T11:24:55;19.50;45.90
28959;DHT22;16066;0.000;0.000;2023-03-23T11:27:21;19.50;45.90
28959;DHT22;16066;0.000;0.000;2023-03-23T11:29:59;19.50;46.00
28959;DHT22;16066;0.000;0.000;2023-03-23T11:32:28;19.40;46.10
28959;DHT22;16066;0.000;0.000;2023-03-23T11:34:59;19.40;46.20
28959;DHT22;16066;0.000;0.000;2023-03-23T11:38:03;19.40;46.40
28959;DHT22;16066;0.000;0.000;2023-03-23T11:40:31;19.40;46.40
28959;DHT22;16066;0.000;0.000;2023-03-23T11:43:19;19.50;46.40
28959;DHT22;16066;0.000;0.000;2023-03-23T11:54:04;19.50;46.30
28959;DHT22;16066;0.000;0.000;2023-03-23T11:56:36;19.50;46.30
28959;DHT22;16066;0.000;0.000;2023-03-23T11:59:08;19.50;46.70
28959;DHT22;16066;0.000;0.000;2023-03-23T12:01:55;19.50;47.10
28959;DHT22;16066;0.000;0.000;2023-03-23T12:07:40;19.60;47.00
28959;DHT22;16066;0.000;0.000;2023-03-23T12:12:51;19.70;46.70
28959;DHT22;16066;0.000;0.000;2023-03-23T12:15:42;19.70;46.80
28959;DHT22;16066;0.000;0.000;2023-03-23T12:21:27;19.80;46.60
28959;DHT22;16066;0.000;0.000;2023-03-23T12:24:24;19.80;46.40
28959;DHT22;16066;0.000;0.000;2023-03-23T12:27:17;19.90;46.50
28959;DHT22;16066;0.000;0.000;2023-03-23T12:33:12;19.90;46.20
28959;DHT22;16066;0.000;0.000;2023-03-23T12:38:31;19.90;46.20
28959;DHT22;16066;0.000;0.000;2023-03-23T12:46:35;20.00;46.30
28959;DHT22;16066;0.000;0.000;2023-03-23T12:49:08;20.00;46.20
28959;DHT22;16066;0.000;0.000;2023-03-23T12:51:38;20.00;46.20
28959;DHT22;16066;0.000;0.000;2023-03-23T12:54:21;20.00;46.20
28959;DHT22;16066;0.000;0.000;2023-03-23T12:57:15;20.00;46.10
28959;DHT22;16066;0.000;0.000;2023-03-23T12:59:50;20.00;46.00
28959;DHT22;16066;0.000;0.000;2023-03-23T13:02:27;20.10;45.90
28959;DHT22;16066;0.000;0.000;2023-03-23T13:05:35;20.10;46.00
28959;DHT22;16066;0.000;0.000;2023-03-23T13:08:14;20.10;46.20
28959;DHT22;16066;0.000;0.000;2023-03-23T13:10:51;20.10;46.30
28959;DHT22;16066;0.000;0.000;2023-03-23T13:13:25;20.10;46.20
28959;DHT22;16066;0.000;0.000;2023-03-23T13:21:59;20.20;46.10
28959;DHT22;16066;0.000;0.000;2023-03-23T13:24:29;20.20;46.00
28959;DHT22;16066;0.000;0.000;2023-03-23T13:26:56;20.20;46.00
28959;DHT22;16066;0.000;0.000;2023-03-23T13:29:24;20.20;46.00
28959;DHT22;16066;0.000;0.000;2023-03-23T13:31:51;20.20;46.00
28959;DHT22;16066;0.000;0.000;2023-03-23T13:34:25;20.20;45.90
28959;DHT22;16066;0.000;0.000;2023-03-23T13:37:11;20.20;45.80
28959;DHT22;16066;0.000;0.000;2023-03-23T13:39:53;20.20;45.80
28959;DHT22;16066;0.000;0.000;2023-03-23T13:42:30;20.20;45.90
28959;DHT22;16066;0.000;0.000;2023-03-23T13:47:47;20.20;45.70
28959;DHT22;16066;0.000;0.000;2023-03-23T13:50:26;20.20;45.60
28959;DHT22;16066;0.000;0.000;2023-03-23T13:52:54;20.20;45.70
28959;DHT22;16066;0.000;0.000;2023-03-23T13:55:48;20.20;45.70
28959;DHT22;16066;0.000;0.000;2023-03-23T13:58:25;20.20;45.70
28959;DHT22;16066;0.000;0.000;2023-03-23T14:01:14;20.20;45.80
28959;DHT22;16066;0.000;0.000;2023-03-23T14:03:43;20.20;45.80
28959;DHT22;16066;0.000;0.000;2023-03-23T14:06:16;20.20;45.80
28959;DHT22;16066;0.000;0.000;2023-03-23T14:08:44;20.20;45.80
28959;DHT22;16066;0.000;0.000;2023-03-23T14:11:17;20.20;45.80
28959;DHT22;16066;0.000;0.000;2023-03-23T14:14:00;20.20;45.80
28959;DHT22;16066;0.000;0.000;2023-03-23T14:16:44;20.20;45.90
28959;DHT22;16066;0.000;0.000;2023-03-23T14:19:24;20.20;45.90
28959;DHT22;16066;0.000;0.000;2023-03-23T14:22:01;20.20;46.00
28959;DHT22;16066;0.000;0.000;2023-03-23T14:24:32;20.20;46.10
28959;DHT22;16066;0.000;0.000;2023-03-23T14:27:17;20.20;46.20
28959;DHT22;16066;0.000;0.000;2023-03-23T14:29:43;20.30;46.10
28959;DHT22;16066;0.000;0.000;2023-03-23T14:32:14;20.30;46.10
28959;DHT22;16066;0.000;0.000;2023-03-23T14:34:41;20.30;46.10
28959;DHT22;16066;0.000;0.000;2023-03-23T14:37:14;20.30;46.10
28959;DHT22;16066;0.000;0.000;2023-03-23T14:39:44;20.30;46.00
28959;DHT22;16066;0.000;0.000;2023-03-23T14:42:13;20.30;46.00
28959;DHT22;16066;0.000;0.000;2023-03-23T14:44:45;20.30;46.00
28959;DHT22;16066;0.000;0.000;2023-03-23T14:47:33;20.30;46.10
28959;DHT22;16066;0.000;0.000;2023-03-23T14:50:01;20.30;46.10
28959;DHT22;16066;0.000;0.000;2023-03-23T14:52:29;20.30;45.80
28959;DHT22;16066;0.000;0.000;2023-03-23T14:57:42;20.30;45.80
28959;DHT22;16066;0.000;0.000;2023-03-23T15:00:13;20.30;45.80
28959;DHT22;16066;0.000;0.000;2023-03-23T15:02:43;20.30;45.80
28959;DHT22;16066;0.000;0.000;2023-03-23T15:05:15;20.30;45.80
28959;DHT22;16066;0.000;0.000;2023-03-23T15:07:47;20.30;45.80
28959;DHT22;16066;0.000;0.000;2023-03-23T15:10:17;20.30;45.80
28959;DHT22;16066;0.000;0.000;2023-03-23T15:12:45;20.30;45.80
28959;DHT22;16066;0.000;0.000;2023-03-23T15:15:30;20.30;45.80
28959;DHT22;16066;0.000;0.000;2023-03-23T15:17:56;20.30;45.80
28959;DHT22;16066;0.000;0.000;2023-03-23T15:20:31;20.30;45.70
28959;DHT22;16066;0.000;0.000;2023-03-23T15:23:05;20.30;45.70
28959;DHT22;16066;0.000;0.000;2023-03-23T15:25:33;20.30;45.80
28959;DHT22;16066;0.000;0.000;2023-03-23T15:28:16;20.20;45.70
28959;DHT22;16066;0.000;0.000;2023-03-23T15:30:52;20.20;45.70
28959;DHT22;16066;0.000;0.000;2023-03-23T15:33:19;20.20;45.70
28959;DHT22;16066;0.000;0.000;2023-03-23T15:35:52;20.20;45.70
28959;DHT22;16066;0.000;0.000;2023-03-23T15:38:25;20.20;45.70
28959;DHT22;16066;0.000;0.000;2023-03-23T15:40:55;20.30;45.70
28959;DHT22;16066;0.000;0.000;2023-03-23T15:43:24;20.60;45.30
28959;DHT22;16066;0.000;0.000;2023-03-23T15:46:02;21.00;44.80
28959;DHT22;16066;0.000;0.000;2023-03-23T15:48:45;21.40;44.10
28959;DHT22;16066;0.000;0.000;2023-03-23T15:51:11;21.80;43.60
28959;DHT22;16066;0.000;0.000;2023-03-23T15:53:38;22.10;43.00
28959;DHT22;16066;0.000;0.000;2023-03-23T15:56:06;22.30;42.60
28959;DHT22;16066;0.000;0.000;2023-03-23T15:58:32;22.40;42.20
28959;DHT22;16066;0.000;0.000;2023-03-23T16:01:00;22.40;42.20
28959;DHT22;16066;0.000;0.000;2023-03-23T16:03:33;22.40;42.20
28959;DHT22;16066;0.000;0.000;2023-03-23T16:06:01;22.40;42.20
28959;DHT22;16066;0.000;0.000;2023-03-23T16:08:28;22.30;42.20
28959;DHT22;16066;0.000;0.000;2023-03-23T16:10:53;22.20;42.30
28959;DHT22;16066;0.000;0.000;2023-03-23T16:13:19;22.10;42.50
28959;DHT22;16066;0.000;0.000;2023-03-23T16:15:46;21.90;42.70
28959;DHT22;16066;0.000;0.000;2023-03-23T16:18:18;21.70;42.90
28959;DHT22;16066;0.000;0.000;2023-03-23T16:20:45;21.60;43.20
28959;DHT22;16066;0.000;0.000;2023-03-23T16:23:11;21.50;43.30
28959;DHT22;16066;0.000;0.000;2023-03-23T16:25:36;21.40;43.70
28959;DHT22;16066;0.000;0.000;2023-03-23T16:28:02;21.30;43.90
28959;DHT22;16066;0.000;0.000;2023-03-23T16:30:31;21.20;44.00
28959;DHT22;16066;0.000;0.000;2023-03-23T16:32:57;21.20;44.20
28959;DHT22;16066;0.000;0.000;2023-03-23T16:35:22;21.10;44.10
28959;DHT22;16066;0.000;0.000;2023-03-23T16:37:51;21.10;44.30
28959;DHT22;16066;0.000;0.000;2023-03-23T16:40:18;21.00;44.40
28959;DHT22;16066;0.000;0.000;2023-03-23T16:42:44;20.90;44.50
28959;DHT22;16066;0.000;0.000;2023-03-23T16:45:10;20.90;44.60
28959;DHT22;16066;0.000;0.000;2023-03-23T16:47:36;20.90;44.50
28959;DHT22;16066;0.000;0.000;2023-03-23T16:50:02;20.90;44.70
28959;DHT22;16066;0.000;0.000;2023-03-23T16:52:27;20.90;44.70
28959;DHT22;16066;0.000;0.000;2023-03-23T16:54:53;20.90;44.90
28959;DHT22;16066;0.000;0.000;2023-03-23T16:57:19;20.80;44.80
28959;DHT22;16066;0.000;0.000;2023-03-23T16:59:44;20.70;44.80
28959;DHT22;16066;0.000;0.000;2023-03-23T17:02:11;20.70;45.00
28959;DHT22;16066;0.000;0.000;2023-03-23T17:04:41;20.70;45.00
28959;DHT22;16066;0.000;0.000;2023-03-23T17:07:07;20.60;44.90
28959;DHT22;16066;0.000;0.000;2023-03-23T17:09:33;20.60;45.00